Capitan Corbeta, Uruguay

9:25 AM UYT on September 19, 2014 (GMT -0300)
Capitan Curbelo International | Change Station
CLOSE
Current Station
Airport
Location: Capitan Corbeta,
Elevation: 98 ft
Nearby Weather Stations

Elev 98 ft 34.86 °S, 55.09 °W | Updated 25 minutes ago

Overcast
Overcast
61 °F
Feels Like 61 °F
N
5
Wind Variable Wind from NNE

Today
High -- | Low -- °F
--% Chance of Precip.
Yesterday
High -- | Low -- °F
Precip. -- in
6:34 AM 6:34 PM
Waning Crescent, 19% visible
Pressure 29.89 in
Visibility 1.2 miles
Clouds Overcast 700 ft
Dew Point 59 °F
Humidity 94%
Rainfall 0.00 in
Snow Depth Not available.
UV 1 out of 12
Pollen Not available.
Air Quality Not available.
Flu Activity Not available.
METAR SULS 191200Z 02004KT 2000 BR OVC007 16/15 Q1012

More Conditions Fewer Conditions

Pressure 29.89 in
Visibility 1.2 miles
Clouds Overcast 700 ft
Dew Point 59 °F
Humidity 94%
Rainfall 0.00 in
Snow Depth Not available.
UV 1 out of 12
Pollen Not available.
Air Quality Not available.
Flu Activity Not available.
METAR SULS 191200Z 02004KT 2000 BR OVC007 16/15 Q1012

More Conditions Fewer Conditions

10-Day Weather Forecast

Almanac

Astronomy

Sep. 19, 2014 Rise Set
Actual Time 6:34 AM UYT 6:34 PM UYT
Civil Twilight 6:09 AM UYT 6:59 PM UYT
Nautical Twilight 5:39 AM UYT 7:29 PM UYT
Astronomical Twilight 5:10 AM UYT 7:58 PM UYT
Moon 3:42 AM UYT 2:39 PM UYT
Length of Visible Light 12h 50m
Length of Day
12h 00m
Tomorrow will be 2m 10s longer.
Waning Crescent, 19% of the Moon is Illuminated
Today
Waning Crescent
Sep 24
New
Oct 1
First Quarter
Oct 8
Full
Oct 15
Last Quarter

Yesterday's Extremes

Country Highs Country Lows

Community

WunderPhotos

Upload Photos

1,754,598 photos uploaded!

Nearby

Snow Depth

Not available.

Earthquake Activity

City Distance Mag. Time & Date
No recent earthquake activity has been reported nearby.
Minimum magnitude displayed is 2.5.

Coastal Water Temperatures

Place Temperature
No Stations Reporting

Nearby Weather Stations